Atlantic - Newfoundland: Past 24 Hour Conditions

 

Argentia

03:30 AM NDT 25 July 2014
This table is a summary of hourly weather conditions for the past 24 hours.
Date / Time
(NDT)
Wind(knots) Conditions Visibility(km) Pressure(kPa) Air tempC) Relative humidity(%) Dew pointC)
25 July 2014
3:30 S 8 N/A N/A 101.0 19 89 17
2:30 S 8 N/A N/A 101.1 19 96 19
1:30 SSW 9 N/A N/A 101.2 19 97 18
0:30 SSW 7 N/A N/A 101.2 17 98 17
24 July 2014
23:30 SSW 10 N/A N/A 101.2 17 98 17
22:30 SW 9 N/A N/A 101.2 17 97 17
21:30 SSW 14 gust 19 N/A N/A 101.2 17 97 17
20:30 SSW 17 N/A N/A 101.2 17 95 16
19:30 SSW 15 gust 21 N/A N/A 101.2 18 95 17
18:30 SSW 17 gust 23 N/A N/A 101.2 17 97 17
17:30 SSW 17 gust 22 N/A N/A 101.1 17 96 16
16:30 SSW 15 gust 21 N/A N/A 101.2 17 95 16
15:30 SSW 13 gust 20 N/A N/A 101.1 17 94 16
14:30 SSW 14 gust 21 N/A N/A 101.1 17 95 16
13:30 SSW 15 gust 21 N/A N/A 101.1 17 94 16
12:30 SSW 19 N/A N/A 101.1 17 96 16
11:30 SSW 19 gust 24 N/A N/A 101.0 17 94 16
10:30 SSW 16 gust 22 N/A N/A 101.0 17 91 16
9:30 SSW 16 gust 21 N/A N/A 101.0 17 91 16
8:30 SSW 19 N/A N/A 100.9 17 93 16
7:30 SSW 16 N/A N/A 101.0 16 96 16
6:30 SSW 13 N/A N/A 101.0 16 96 15
5:30 SW 12 N/A N/A 100.9 16 96 15
4:30 SSW 13 N/A N/A 100.9 16 95 15
3:30 SSW 13 N/A N/A 100.9 16 94 15
 
Map of Atlantic - Newfoundland marine weather areas Southwestern Grand Banks - 44138 Banquereau - 44139 Tail of the Bank - 44140 Nickerson Bank - 44251 Northeast Burgeo Bank - 44255 Blanc-Sablon Airport Cap Whittle Chevery Natashquan Airport Heath Point Miscou Island Grand Étang Ingonish Beach North Mountain St.Paul Island J.A. Douglas McCurdy Sydney Airport Charlottetown Airport East Point North Cape Argentia Bonavista Burgeo Cape Race Corner Brook Daniel's Harbour Englee Ferolle Point La Scie Port aux Basques Rocky Harbour Sagona Island St. Anthony Airport St. John's Int'l Airport St. Lawrence Stephenville Airport Twillingate Winterland Wreckhouse Cartwright Airport Mary's Harbour Grates Cove Pool's Island Marticot Island Long Pond Îles de la Madeleine Airport
Legend: buoyBuoy land stationLand Station